Time;durP1;ratioP1;P1;durP2;ratioP2;P2;SDS_P1;SDS_P2;PMS_P1;PMS_P2;Temp;Humidity;BMP_temperature;BMP_pressure;BME280_temperature;BME280_humidity;BME280_pressure;Samples;Min_cycle;Max_cycle;Signal;HPM_P1;HPM_P2
2022/03/21 00:00:37;;;;;;;3.25;2.72;;;;;;;-148.56;100.00;61375.16;4959111;28;20039;-37
2022/03/21 00:03:02;;;;;;;3.30;2.47;;;;;;;-148.56;100.00;61375.16;4961923;28;20579;-38
2022/03/21 00:05:30;;;;;;;4.22;2.70;;;;;;;-148.56;100.00;61375.16;4960975;28;20169;-38
2022/03/21 00:07:55;;;;;;;3.33;2.58;;;;;;;-148.56;100.00;61375.16;4961964;28;20046;-37
2022/03/21 00:10:21;;;;;;;3.58;2.90;;;;;;;-148.56;100.00;61375.16;4959461;28;20034;-35
2022/03/21 00:12:46;;;;;;;4.20;2.70;;;;;;;-148.56;100.00;61375.16;4961853;28;20022;-35
2022/03/21 00:15:12;;;;;;;2.85;2.50;;;;;;;-148.56;100.00;61375.16;4961598;28;20089;-32
2022/03/21 00:17:40;;;;;;;3.00;2.50;;;;;;;-148.56;100.00;61375.16;4958949;28;20027;-38
2022/03/21 00:20:08;;;;;;;3.10;2.80;;;;;;;-148.56;100.00;61375.16;4943524;28;20027;-33
2022/03/21 00:22:33;;;;;;;3.03;2.60;;;;;;;-148.56;100.00;61375.16;4961971;28;20030;-35
2022/03/21 00:24:59;;;;;;;4.88;2.50;;;;;;;-148.56;100.00;61375.16;4960751;28;20042;-38
2022/03/21 00:27:24;;;;;;;3.65;2.80;;;;;;;-148.56;100.00;61375.16;4960651;28;20046;-36
2022/03/21 00:29:50;;;;;;;3.80;2.80;;;;;;;-148.56;100.00;61375.16;4968226;28;20089;-34
2022/03/21 00:32:15;;;;;;;3.50;2.75;;;;;;;-148.56;100.00;61375.16;4961021;28;20073;-33
2022/03/21 00:34:40;;;;;;;2.42;2.22;;;;;;;-148.56;100.00;61375.16;4958723;28;20034;-36
2022/03/21 00:37:07;;;;;;;2.80;2.40;;;;;;;-148.56;100.00;61375.16;4962534;28;20035;-35
2022/03/21 00:39:33;;;;;;;3.83;2.50;;;;;;;-148.56;100.00;61375.16;4959149;28;20023;-37
2022/03/21 00:41:58;;;;;;;3.47;2.55;;;;;;;-148.56;100.00;61375.16;4961625;28;20030;-38
2022/03/21 00:44:23;;;;;;;3.13;2.67;;;;;;;-148.56;100.00;61375.16;4960846;28;20034;-32
2022/03/21 00:46:49;;;;;;;2.90;2.55;;;;;;;-148.56;100.00;61375.16;4961335;28;20027;-33
2022/03/21 00:49:14;;;;;;;2.65;2.45;;;;;;;-148.56;100.00;61375.16;4959480;28;20085;-34
2022/03/21 00:51:40;;;;;;;2.58;2.22;;;;;;;-148.56;100.00;61375.16;4962835;28;20068;-37
2022/03/21 00:54:05;;;;;;;3.05;2.30;;;;;;;-148.56;100.00;61375.16;4959513;28;20038;-38
2022/03/21 00:56:31;;;;;;;3.17;2.58;;;;;;;-148.56;100.00;61375.16;4959827;28;20257;-30
2022/03/21 00:58:56;;;;;;;2.58;2.30;;;;;;;-148.56;100.00;61375.16;4961224;28;20103;-37
2022/03/21 01:01:23;;;;;;;4.78;2.75;;;;;;;-148.56;100.00;61375.16;4959864;28;20034;-35
2022/03/21 01:03:48;;;;;;;3.05;2.50;;;;;;;-148.56;100.00;61375.16;4959583;28;21145;-37
2022/03/21 01:06:13;;;;;;;3.40;2.40;;;;;;;-148.56;100.00;61375.16;4958848;28;20034;-39
2022/03/21 01:08:39;;;;;;;2.78;2.35;;;;;;;-148.56;100.00;61375.16;4960643;28;20047;-33
2022/03/21 01:11:04;;;;;;;3.97;2.72;;;;;;;-148.56;100.00;61375.16;4961579;28;20050;-35
2022/03/21 01:13:30;;;;;;;2.47;2.28;;;;;;;-148.56;100.00;61375.16;4958316;28;20769;-36
2022/03/21 01:15:55;;;;;;;3.78;2.50;;;;;;;-148.56;100.00;61375.16;4958951;28;20031;-35
2022/03/21 01:18:22;;;;;;;3.47;2.40;;;;;;;-148.56;100.00;61375.16;4960381;28;20034;-34
2022/03/21 01:20:48;;;;;;;2.95;2.40;;;;;;;-148.56;100.00;61375.16;4958626;28;20034;-36
2022/03/21 01:23:13;;;;;;;3.50;2.45;;;;;;;-148.56;100.00;61375.16;4957570;28;20117;-31
2022/03/21 01:25:39;;;;;;;3.75;2.35;;;;;;;-148.56;100.00;61375.16;4958114;28;20022;-36
2022/03/21 01:28:04;;;;;;;2.88;2.22;;;;;;;-148.56;100.00;61375.16;4959563;28;20034;-38
2022/03/21 01:30:29;;;;;;;3.25;2.35;;;;;;;-148.56;100.00;61375.16;4967355;28;20026;-36
2022/03/21 01:32:55;;;;;;;2.50;2.30;;;;;;;-148.56;100.00;61375.16;4967395;28;20038;-33
2022/03/21 01:35:21;;;;;;;3.20;2.58;;;;;;;-148.56;100.00;61375.16;4968645;28;20110;-34
2022/03/21 01:37:47;;;;;;;3.20;2.55;;;;;;;-148.56;100.00;61375.16;4968716;28;20030;-33
2022/03/21 01:40:13;;;;;;;2.97;2.47;;;;;;;-148.56;100.00;61375.16;4967443;28;20503;-33
2022/03/21 01:42:39;;;;;;;2.47;2.20;;;;;;;-148.56;100.00;61375.16;4968436;28;20481;-35
2022/03/21 01:45:05;;;;;;;2.83;2.33;;;;;;;-148.56;100.00;61375.16;4968941;28;20031;-34
2022/03/21 01:47:33;;;;;;;2.95;2.53;;;;;;;-148.56;100.00;61375.16;4966697;28;20062;-33
2022/03/21 01:49:58;;;;;;;3.60;2.50;;;;;;;-148.56;100.00;61375.16;4966374;28;20042;-36
2022/03/21 01:52:24;;;;;;;2.95;2.50;;;;;;;-148.56;100.00;61375.16;4968180;28;20034;-37
2022/03/21 01:57:33;;;;;;;2.72;2.30;;;;;;;-148.56;100.00;61375.16;4939620;28;20068;-35
2022/03/21 01:59:59;;;;;;;2.72;2.38;;;;;;;-148.56;100.00;61375.16;4964259;28;20457;-36
2022/03/21 02:02:25;;;;;;;2.92;2.50;;;;;;;-148.56;100.00;61375.16;4958399;28;20039;-35
2022/03/21 02:04:50;;;;;;;2.78;2.25;;;;;;;-148.56;100.00;61375.16;4956937;28;20057;-29
2022/03/21 02:07:17;;;;;;;4.90;2.33;;;;;;;-148.56;100.00;61375.16;4959527;28;20852;-36
2022/03/21 02:09:42;;;;;;;4.55;2.63;;;;;;;-148.56;100.00;61375.16;4925867;28;20018;-35
2022/03/21 02:12:08;;;;;;;2.75;2.28;;;;;;;-148.56;100.00;61375.16;4958010;28;20492;-34
2022/03/21 02:14:39;;;;;;;2.78;2.47;;;;;;;-148.56;100.00;61375.16;4955927;28;20033;-38
2022/03/21 02:17:04;;;;;;;3.42;2.88;;;;;;;-148.56;100.00;61375.16;4939754;28;20069;-31
2022/03/21 02:19:31;;;;;;;3.78;2.55;;;;;;;-148.56;100.00;61375.16;4958718;28;20027;-36
2022/03/21 02:22:15;;;;;;;2.75;2.38;;;;;;;-148.56;100.00;61375.16;4959476;28;20034;-33
2022/03/21 02:24:44;;;;;;;4.20;2.45;;;;;;;-148.56;100.00;61375.16;4962182;28;20054;-38
2022/03/21 02:27:10;;;;;;;2.72;2.35;;;;;;;-148.56;100.00;61375.16;4962854;28;20603;-32
2022/03/21 02:29:36;;;;;;;3.20;2.50;;;;;;;-148.56;100.00;61375.16;4944457;28;20101;-34
2022/03/21 02:32:02;;;;;;;2.53;2.08;;;;;;;-148.56;100.00;61375.16;4943423;28;20097;-27
2022/03/21 02:34:27;;;;;;;3.75;2.70;;;;;;;-148.56;100.00;61375.16;4961871;28;20037;-37
2022/03/21 02:36:59;;;;;;;3.35;2.45;;;;;;;-148.56;100.00;61375.16;4931503;28;20034;-39
2022/03/21 02:39:28;;;;;;;2.88;2.58;;;;;;;-148.56;100.00;61375.16;4964612;28;20113;-36
2022/03/21 02:41:54;;;;;;;3.25;2.20;;;;;;;-148.56;100.00;61375.16;4946643;28;20066;-33
2022/03/21 02:44:19;;;;;;;2.58;2.28;;;;;;;-148.56;100.00;61375.16;4957850;28;20648;-36
2022/03/21 02:46:45;;;;;;;2.80;2.38;;;;;;;-148.56;100.00;61375.16;4961778;28;20119;-35
2022/03/21 02:49:11;;;;;;;3.13;2.70;;;;;;;-148.56;100.00;61375.16;4945465;28;20122;-35
2022/03/21 02:51:37;;;;;;;4.15;2.80;;;;;;;-148.56;100.00;61375.16;4943828;28;20057;-35
2022/03/21 02:54:03;;;;;;;4.25;2.17;;;;;;;-148.56;100.00;61375.16;4961366;28;20038;-33
2022/03/21 02:56:28;;;;;;;2.90;2.50;;;;;;;-148.56;100.00;61375.16;4959404;28;20520;-36
2022/03/21 02:58:53;;;;;;;3.35;2.30;;;;;;;-148.56;100.00;61375.16;4960392;28;20023;-36
2022/03/21 03:01:19;;;;;;;3.30;2.70;;;;;;;-148.56;100.00;61375.16;4945324;28;20045;-34
2022/03/21 03:03:44;;;;;;;3.67;2.63;;;;;;;-148.56;100.00;61375.16;4962731;28;20066;-36
2022/03/21 03:06:10;;;;;;;2.95;2.58;;;;;;;-148.56;100.00;61375.16;4968192;28;20034;-36
2022/03/21 03:08:37;;;;;;;2.65;2.45;;;;;;;-148.56;100.00;61375.16;4962489;28;20035;-36
2022/03/21 03:11:02;;;;;;;3.53;2.45;;;;;;;-148.56;100.00;61375.16;4961513;28;20038;-35
2022/03/21 03:13:28;;;;;;;3.33;2.35;;;;;;;-148.56;100.00;61375.16;4960478;28;20034;-36
2022/03/21 03:15:53;;;;;;;2.70;2.50;;;;;;;-148.56;100.00;61375.16;4961510;28;20034;-33
2022/03/21 03:18:19;;;;;;;2.58;2.30;;;;;;;-148.56;100.00;61375.16;4962606;28;20035;-33
2022/03/21 03:20:52;;;;;;;2.60;2.40;;;;;;;-148.56;100.00;61375.16;4959720;28;20030;-37
2022/03/21 03:23:18;;;;;;;3.08;2.33;;;;;;;-148.56;100.00;61375.16;4962128;28;20761;-37
2022/03/21 03:25:44;;;;;;;4.55;2.60;;;;;;;-148.56;100.00;61375.16;4959729;28;20065;-33
2022/03/21 03:28:09;;;;;;;2.60;2.40;;;;;;;-148.56;100.00;61375.16;4963415;28;20847;-32
2022/03/21 03:30:35;;;;;;;2.53;2.33;;;;;;;-148.56;100.00;61375.16;4965803;28;20035;-35
2022/03/21 03:33:01;;;;;;;4.10;2.58;;;;;;;-148.56;100.00;61375.16;4969749;28;20797;-37
2022/03/21 03:35:26;;;;;;;3.03;2.70;;;;;;;-148.56;100.00;61375.16;4929193;28;20030;-33
2022/03/21 03:37:51;;;;;;;3.72;2.38;;;;;;;-148.56;100.00;61375.16;4942143;28;20970;-37
2022/03/21 03:40:18;;;;;;;3.17;2.40;;;;;;;-148.56;100.00;61375.16;4961275;28;20054;-37
2022/03/21 03:42:43;;;;;;;3.35;2.53;;;;;;;-148.56;100.00;61375.16;4962881;28;20030;-40
2022/03/21 03:45:09;;;;;;;2.42;2.22;;;;;;;-148.56;100.00;61375.16;4961082;28;20564;-37
2022/03/21 03:47:35;;;;;;;2.88;2.30;;;;;;;-148.56;100.00;61375.16;4958031;28;20038;-29
2022/03/21 03:50:00;;;;;;;2.63;2.17;;;;;;;-148.56;100.00;61375.16;4960423;28;20042;-34
2022/03/21 03:52:25;;;;;;;4.22;2.70;;;;;;;-148.56;100.00;61375.16;4961171;28;20639;-36
2022/03/21 03:54:51;;;;;;;2.67;2.47;;;;;;;-148.56;100.00;61375.16;4959499;28;20030;-31
2022/03/21 03:57:16;;;;;;;3.22;2.60;;;;;;;-148.56;100.00;61375.16;4959421;28;20822;-36
2022/03/21 03:59:42;;;;;;;4.38;2.55;;;;;;;-148.56;100.00;61375.16;4960872;28;20035;-36
2022/03/21 04:02:09;;;;;;;2.90;2.60;;;;;;;-148.56;100.00;61375.16;4962194;28;20030;-33
2022/03/21 04:04:35;;;;;;;3.20;2.42;;;;;;;-148.56;100.00;61375.16;4958637;28;20064;-37
2022/03/21 04:07:00;;;;;;;2.97;2.50;;;;;;;-148.56;100.00;61375.16;4961033;28;20151;-34
2022/03/21 04:09:26;;;;;;;3.45;2.50;;;;;;;-148.56;100.00;61375.16;4961672;28;20031;-34
2022/03/21 04:11:51;;;;;;;2.75;2.50;;;;;;;-148.56;100.00;61375.16;4958298;28;20772;-37
2022/03/21 04:14:16;;;;;;;2.67;2.47;;;;;;;-148.56;100.00;61375.16;4960246;28;20035;-33
2022/03/21 04:16:44;;;;;;;3.25;2.38;;;;;;;-148.56;100.00;61375.16;4961096;28;20703;-33
2022/03/21 04:19:13;;;;;;;4.25;2.47;;;;;;;-148.56;100.00;61375.16;4961419;28;20038;-36
2022/03/21 04:21:39;;;;;;;3.92;2.38;;;;;;;-148.56;100.00;61375.16;4959620;28;20041;-35
2022/03/21 04:24:04;;;;;;;2.60;2.30;;;;;;;-148.56;100.00;61375.16;4961599;28;20030;-33
2022/03/21 04:26:30;;;;;;;3.22;2.33;;;;;;;-148.56;100.00;61375.16;4960096;28;21190;-36
2022/03/21 04:28:55;;;;;;;2.90;2.60;;;;;;;-148.56;100.00;61375.16;4962120;28;20041;-37
2022/03/21 04:31:21;;;;;;;3.72;2.55;;;;;;;-148.56;100.00;61375.16;4959137;28;20089;-36
2022/03/21 04:33:46;;;;;;;2.78;2.30;;;;;;;-148.56;100.00;61375.16;4960958;28;20113;-37
2022/03/21 04:36:13;;;;;;;4.00;2.35;;;;;;;-148.56;100.00;61375.16;4942052;28;20045;-35
2022/03/21 04:38:38;;;;;;;2.80;2.45;;;;;;;-148.56;100.00;61375.16;4960282;28;20031;-34
2022/03/21 04:41:04;;;;;;;3.00;2.40;;;;;;;-148.56;100.00;61375.16;4959955;28;20065;-35
2022/03/21 04:43:29;;;;;;;3.95;2.50;;;;;;;-148.56;100.00;61375.16;4959583;28;20042;-35
2022/03/21 04:45:55;;;;;;;2.60;2.28;;;;;;;-148.56;100.00;61375.16;4958650;28;20038;-36
2022/03/21 04:48:20;;;;;;;3.00;2.47;;;;;;;-148.56;100.00;61375.16;4960451;28;20524;-32
2022/03/21 04:50:46;;;;;;;2.60;2.40;;;;;;;-148.56;100.00;61375.16;4959713;28;20027;-33
2022/03/21 04:53:11;;;;;;;4.15;2.45;;;;;;;-148.56;100.00;61375.16;4957890;28;20042;-36
2022/03/21 04:55:38;;;;;;;2.65;2.30;;;;;;;-148.56;100.00;61375.16;4959894;28;20060;-37
2022/03/21 04:58:03;;;;;;;2.60;2.40;;;;;;;-148.56;100.00;61375.16;4958381;28;20100;-40
2022/03/21 05:00:29;;;;;;;2.58;2.22;;;;;;;-148.56;100.00;61375.16;4958508;28;20023;-37
2022/03/21 05:02:54;;;;;;;2.95;2.25;;;;;;;-148.56;100.00;61375.16;4962363;28;20034;-33
2022/03/21 05:05:20;;;;;;;2.40;2.20;;;;;;;-148.56;100.00;61375.16;4960501;28;20034;-39
2022/03/21 05:07:45;;;;;;;2.47;2.13;;;;;;;-148.56;100.00;61375.16;4961822;28;20034;-38
2022/03/21 05:10:11;;;;;;;2.38;2.10;;;;;;;-148.56;100.00;61375.16;4943457;28;20034;-37
2022/03/21 05:12:37;;;;;;;2.53;2.33;;;;;;;-148.56;100.00;61375.16;4956624;28;20528;-38
2022/03/21 05:15:04;;;;;;;2.92;2.10;;;;;;;-148.56;100.00;61375.16;4960658;28;20084;-37
2022/03/21 05:17:30;;;;;;;2.60;2.30;;;;;;;-148.56;100.00;61375.16;4967394;28;20018;-36
2022/03/21 05:19:55;;;;;;;2.80;2.50;;;;;;;-148.56;100.00;61375.16;4969450;28;20121;-37
2022/03/21 05:22:21;;;;;;;2.63;2.30;;;;;;;-148.56;100.00;61375.16;4969267;28;20031;-30
2022/03/21 05:35:57;;;;;;;2.50;2.10;;;;;;;-148.56;100.00;61375.16;4967779;28;20064;-35
2022/03/21 05:38:27;;;;;;;2.63;2.20;;;;;;;-148.56;100.00;61375.16;4970942;28;20122;-37
2022/03/21 05:40:53;;;;;;;2.42;2.22;;;;;;;-148.56;100.00;61375.16;4968996;28;20030;-33
2022/03/21 05:43:19;;;;;;;4.78;2.00;;;;;;;-148.56;100.00;61375.16;4971075;28;20023;-36
2022/03/21 05:45:44;;;;;;;2.35;2.13;;;;;;;-148.56;100.00;61375.16;4969936;28;20410;-36
2022/03/21 05:50:54;;;;;;;3.17;2.35;;;;;;;-148.56;100.00;61375.16;4957693;28;20038;-37
2022/03/21 05:53:19;;;;;;;5.78;2.10;;;;;;;-148.56;100.00;61375.16;4943712;28;20031;-39
2022/03/21 05:55:45;;;;;;;3.05;2.33;;;;;;;-148.56;100.00;61375.16;4956273;28;20034;-38
2022/03/21 05:58:11;;;;;;;3.20;2.30;;;;;;;-148.56;100.00;61375.16;4959803;28;20093;-36
2022/03/21 06:00:37;;;;;;;3.90;2.50;;;;;;;-148.56;100.00;61375.16;4957023;28;20034;-37
2022/03/21 06:03:03;;;;;;;2.63;2.20;;;;;;;-148.56;100.00;61375.16;4957976;28;20030;-38
2022/03/21 06:05:29;;;;;;;2.97;2.28;;;;;;;-148.56;100.00;61375.16;4960361;28;20025;-39
2022/03/21 06:07:58;;;;;;;2.97;2.38;;;;;;;-148.56;100.00;61375.16;4957996;28;20577;-33
2022/03/21 06:10:24;;;;;;;2.75;2.30;;;;;;;-148.56;100.00;61375.16;4957601;28;20042;-35
2022/03/21 06:12:50;;;;;;;2.35;2.15;;;;;;;-148.56;100.00;61375.16;4958225;28;20081;-37
2022/03/21 06:15:16;;;;;;;2.50;2.17;;;;;;;-148.56;100.00;61375.16;4958145;28;20923;-37
2022/03/21 06:17:42;;;;;;;2.30;2.10;;;;;;;-148.56;100.00;61375.16;4958836;28;20034;-37
2022/03/21 06:20:08;;;;;;;2.40;2.13;;;;;;;-148.56;100.00;61375.16;4957818;28;20026;-36
2022/03/21 06:22:34;;;;;;;3.55;2.10;;;;;;;-148.56;100.00;61375.16;4957080;28;20030;-38
2022/03/21 06:24:59;;;;;;;2.72;2.30;;;;;;;-148.56;100.00;61375.16;4959068;28;20051;-34
2022/03/21 06:27:24;;;;;;;4.05;2.35;;;;;;;-148.56;100.00;61375.16;4958618;28;20361;-37
2022/03/21 06:29:50;;;;;;;3.35;2.15;;;;;;;-148.56;100.00;61375.16;4940996;28;20541;-40
2022/03/21 06:32:15;;;;;;;3.55;2.30;;;;;;;-148.56;100.00;61375.16;4957598;28;20034;-37
2022/03/21 06:34:41;;;;;;;2.67;2.28;;;;;;;-148.56;100.00;61375.16;4954822;28;20663;-36
2022/03/21 06:37:06;;;;;;;2.88;2.40;;;;;;;-148.56;100.00;61375.16;4935024;28;20042;-37
2022/03/21 06:39:32;;;;;;;2.50;2.25;;;;;;;-148.56;100.00;61375.16;4926018;28;20055;-30
2022/03/21 06:41:57;;;;;;;2.72;2.40;;;;;;;-148.56;100.00;61375.16;4941847;28;20035;-34
2022/03/21 06:44:22;;;;;;;2.63;2.20;;;;;;;-148.56;100.00;61375.16;4941773;28;20041;-35
2022/03/21 06:46:48;;;;;;;3.03;2.10;;;;;;;-148.56;100.00;61375.16;4941897;28;20034;-35
2022/03/21 06:49:13;;;;;;;3.30;2.60;;;;;;;-148.56;100.00;61375.16;4943566;28;20108;-34
2022/03/21 06:51:39;;;;;;;9.13;4.47;;;;;;;-148.56;100.00;61375.16;4942252;28;20034;-34
2022/03/21 06:54:04;;;;;;;5.50;3.60;;;;;;;-148.56;100.00;61375.16;4954090;28;20105;-36
2022/03/21 06:56:29;;;;;;;4.55;2.40;;;;;;;-148.56;100.00;61375.16;4954440;28;20034;-35
2022/03/21 06:58:55;;;;;;;3.45;2.58;;;;;;;-148.56;100.00;61375.16;4958935;28;20282;-32
2022/03/21 07:01:20;;;;;;;3.47;2.72;;;;;;;-148.56;100.00;61375.16;4960589;28;20026;-31
2022/03/21 07:03:46;;;;;;;3.25;2.47;;;;;;;-148.56;100.00;61375.16;4958979;28;20031;-38
2022/03/21 07:06:11;;;;;;;5.82;2.35;;;;;;;-148.56;100.00;61375.16;4965138;28;20054;-37
2022/03/21 07:08:36;;;;;;;4.63;2.47;;;;;;;-148.56;100.00;61375.16;4959501;28;22115;-35
2022/03/21 07:11:02;;;;;;;2.35;2.15;;;;;;;-148.56;100.00;61375.16;4960549;28;20039;-33
2022/03/21 07:13:29;;;;;;;3.05;2.47;;;;;;;-148.56;100.00;61375.16;4962057;28;20022;-33
2022/03/21 07:15:55;;;;;;;2.65;2.38;;;;;;;-148.56;100.00;61375.16;4962069;28;20039;-36
2022/03/21 07:18:21;;;;;;;2.50;2.05;;;;;;;-148.56;100.00;61375.16;4963589;28;20037;-34
2022/03/21 07:20:46;;;;;;;2.42;2.22;;;;;;;-148.56;100.00;61375.16;4961250;28;20501;-34
2022/03/21 07:23:11;;;;;;;3.00;2.47;;;;;;;-148.56;100.00;61375.16;4958858;28;20415;-36
2022/03/21 07:25:37;;;;;;;2.75;2.40;;;;;;;-148.56;100.00;61375.16;4960223;28;20061;-34
2022/03/21 07:28:02;;;;;;;3.05;2.38;;;;;;;-148.56;100.00;61375.16;4964358;28;20039;-36
2022/03/21 07:30:28;;;;;;;5.03;2.70;;;;;;;-148.56;100.00;61375.16;4962133;28;20026;-36
2022/03/21 07:32:53;;;;;;;6.97;3.00;;;;;;;-148.56;100.00;61375.16;4967650;28;20041;-36
2022/03/21 07:35:19;;;;;;;5.82;2.70;;;;;;;-148.56;100.00;61375.16;4960011;28;20093;-37
2022/03/21 07:37:46;;;;;;;15.63;4.40;;;;;;;-148.56;100.00;61375.16;4963685;28;20100;-38
2022/03/21 07:40:12;;;;;;;11.35;4.00;;;;;;;-148.56;100.00;61375.16;4959860;28;20030;-37
2022/03/21 07:42:38;;;;;;;8.90;3.90;;;;;;;-148.56;100.00;61375.16;4958882;28;20157;-29
2022/03/21 07:47:51;;;;;;;8.45;3.78;;;;;;;-148.56;100.00;61375.16;4943908;28;20150;-36
2022/03/21 07:50:16;;;;;;;11.45;3.45;;;;;;;-148.56;100.00;61375.16;4960416;28;20588;-33
2022/03/21 07:52:42;;;;;;;10.52;3.58;;;;;;;-148.56;100.00;61375.16;4940653;28;20037;-38
2022/03/21 07:55:08;;;;;;;7.55;3.75;;;;;;;-148.56;100.00;61375.16;4902508;28;20130;-29
2022/03/21 07:57:33;;;;;;;7.20;3.70;;;;;;;-148.56;100.00;61375.16;4915100;28;22149;-32
2022/03/21 07:59:59;;;;;;;8.18;3.83;;;;;;;-148.56;100.00;61375.16;4921553;28;20084;-34
2022/03/21 08:02:26;;;;;;;7.57;3.30;;;;;;;-148.56;100.00;61375.16;4924684;28;20496;-32
2022/03/21 08:04:52;;;;;;;9.82;3.63;;;;;;;-148.56;100.00;61375.16;4902614;28;20145;-36
2022/03/21 08:07:17;;;;;;;8.57;3.60;;;;;;;-148.56;100.00;61375.16;4922201;28;20092;-34
2022/03/21 08:09:42;;;;;;;7.15;3.72;;;;;;;-148.56;100.00;61375.16;4924918;28;20022;-37
2022/03/21 08:12:09;;;;;;;6.63;3.67;;;;;;;-148.56;100.00;61375.16;4920599;28;20042;-30
2022/03/21 08:14:35;;;;;;;8.88;3.88;;;;;;;-148.56;100.00;61375.16;4920915;28;20038;-35
2022/03/21 08:17:01;;;;;;;10.95;3.90;;;;;;;-148.56;100.00;61375.16;4902557;28;20258;-38
2022/03/21 08:19:27;;;;;;;7.90;3.65;;;;;;;-148.56;100.00;61375.16;4921285;28;20015;-38
2022/03/21 08:21:55;;;;;;;8.77;3.65;;;;;;;-148.56;100.00;61375.16;4920338;28;20035;-34
2022/03/21 08:24:22;;;;;;;9.45;4.25;;;;;;;-148.56;100.00;61375.16;4922216;28;20046;-30
2022/03/21 08:26:47;;;;;;;5.88;3.63;;;;;;;-148.56;100.00;61375.16;4920887;28;20065;-38
2022/03/21 08:29:13;;;;;;;8.43;4.13;;;;;;;-148.56;100.00;61375.16;4919255;28;20033;-34
2022/03/21 08:31:38;;;;;;;9.57;3.72;;;;;;;-148.56;100.00;61375.16;4955472;28;20160;-36
2022/03/21 08:34:04;;;;;;;9.55;3.88;;;;;;;-148.56;100.00;61375.16;4957510;28;20026;-35
2022/03/21 08:36:30;;;;;;;7.05;4.18;;;;;;;-148.56;100.00;61375.16;4958123;28;20037;-34
2022/03/21 08:38:55;;;;;;;9.05;4.50;;;;;;;-148.56;100.00;61375.16;4945908;28;20896;-38
2022/03/21 08:41:21;;;;;;;7.35;3.72;;;;;;;-148.56;100.00;61375.16;4919184;28;20034;-38
2022/03/21 08:43:47;;;;;;;8.73;5.15;;;;;;;-148.56;100.00;61375.16;4917562;28;20268;-35
2022/03/21 08:46:13;;;;;;;11.63;4.15;;;;;;;-148.56;100.00;61375.16;4917656;28;20564;-36
2022/03/21 08:51:23;;;;;;;7.85;3.85;;;;;;;-148.56;100.00;61375.16;4920624;28;20100;-29
2022/03/21 08:53:49;;;;;;;8.20;4.22;;;;;;;-148.56;100.00;61375.16;4955825;28;20030;-37
2022/03/21 08:56:14;;;;;;;6.03;3.70;;;;;;;-148.56;100.00;61375.16;4955792;28;22874;-34
2022/03/21 08:58:40;;;;;;;5.25;3.67;;;;;;;-148.56;100.00;61375.16;4956332;28;20030;-38
2022/03/21 09:01:05;;;;;;;8.18;3.85;;;;;;;-148.56;100.00;61375.16;4939484;28;20030;-36
2022/03/21 09:03:31;;;;;;;6.35;3.60;;;;;;;-148.56;100.00;61375.16;4948526;28;20042;-33
2022/03/21 09:05:56;;;;;;;7.03;4.07;;;;;;;-148.56;100.00;61375.16;4965744;28;20734;-33
2022/03/21 09:08:21;;;;;;;5.82;3.58;;;;;;;-148.56;100.00;61375.16;4964506;28;20038;-32
2022/03/21 09:10:48;;;;;;;5.70;3.78;;;;;;;-148.56;100.00;61375.16;4966802;28;20034;-32
2022/03/21 09:13:14;;;;;;;5.90;3.67;;;;;;;-148.56;100.00;61375.16;4963819;28;20034;-34
2022/03/21 09:15:41;;;;;;;7.15;3.58;;;;;;;-148.56;100.00;61375.16;4966091;28;20033;-35
2022/03/21 09:18:06;;;;;;;6.18;3.33;;;;;;;-148.56;100.00;61375.16;4965428;28;20093;-35
2022/03/21 09:20:31;;;;;;;8.52;3.75;;;;;;;-148.56;100.00;61375.16;4962746;28;23237;-35
2022/03/21 09:22:57;;;;;;;21.15;6.00;;;;;;;-148.56;100.00;61375.16;4966422;28;20035;-34
2022/03/21 09:25:22;;;;;;;20.60;9.88;;;;;;;-148.56;100.00;61375.16;4965545;28;20076;-33
2022/03/21 09:27:49;;;;;;;17.30;13.25;;;;;;;-148.56;100.00;61375.16;4964090;28;20826;-36
2022/03/21 09:30:14;;;;;;;20.67;13.05;;;;;;;-148.56;100.00;61375.16;4964280;28;20030;-35
2022/03/21 09:32:40;;;;;;;26.83;15.10;;;;;;;-148.56;100.00;61375.16;4959734;28;20030;-32
2022/03/21 09:35:06;;;;;;;20.40;13.85;;;;;;;-148.56;100.00;61375.16;4962833;28;20060;-33
2022/03/21 09:37:32;;;;;;;22.30;14.40;;;;;;;-148.56;100.00;61375.16;4970897;28;20041;-33
2022/03/21 09:39:58;;;;;;;17.58;13.10;;;;;;;-148.56;100.00;61375.16;4968778;28;20026;-36
2022/03/21 09:42:24;;;;;;;17.65;13.73;;;;;;;-148.56;100.00;61375.16;4968157;28;20030;-36
2022/03/21 09:44:52;;;;;;;24.67;13.10;;;;;;;-148.56;100.00;61375.16;4969376;28;20035;-34
2022/03/21 09:50:02;;;;;;;21.30;11.52;;;;;;;-148.56;100.00;61375.16;4941774;28;20042;-34
2022/03/21 09:52:27;;;;;;;18.48;12.50;;;;;;;-148.56;100.00;61375.16;4968591;28;20054;-37
2022/03/21 09:54:53;;;;;;;19.85;11.48;;;;;;;-148.56;100.00;61375.16;4936159;28;20547;-36
2022/03/21 09:57:19;;;;;;;16.60;10.23;;;;;;;-148.56;100.00;61375.16;4951200;28;20031;-36
2022/03/21 09:59:45;;;;;;;13.98;9.48;;;;;;;-148.56;100.00;61375.16;4966536;28;20027;-34
2022/03/21 10:02:17;;;;;;;14.18;9.10;;;;;;;-148.56;100.00;61375.16;4971766;28;20969;-38
2022/03/21 10:04:43;;;;;;;17.85;8.93;;;;;;;-148.56;100.00;61375.16;4952285;28;20030;-32
2022/03/21 10:07:10;;;;;;;16.15;9.55;;;;;;;-148.56;100.00;61375.16;4968535;28;20041;-36
2022/03/21 10:09:35;;;;;;;17.35;9.55;;;;;;;-148.56;100.00;61375.16;4951188;28;20082;-35
2022/03/21 10:12:02;;;;;;;18.27;9.90;;;;;;;-148.56;100.00;61375.16;4966487;28;20097;-36
2022/03/21 10:14:36;;;;;;;12.75;9.95;;;;;;;-148.56;100.00;61375.16;4964746;28;20495;-37
2022/03/21 10:17:07;;;;;;;19.15;9.32;;;;;;;-148.56;100.00;61375.16;4969563;28;20051;-31
2022/03/21 10:19:49;;;;;;;20.73;8.90;;;;;;;-148.56;100.00;61375.16;4968434;28;20023;-37
2022/03/21 10:22:22;;;;;;;18.42;8.50;;;;;;;-148.56;100.00;61375.16;4965643;28;20041;-35
2022/03/21 10:24:49;;;;;;;22.33;7.65;;;;;;;-148.56;100.00;61375.16;4952779;28;20625;-36
2022/03/21 10:27:33;;;;;;;14.85;8.30;;;;;;;-148.56;100.00;61375.16;4968293;28;20646;-33
2022/03/21 10:30:02;;;;;;;17.45;8.02;;;;;;;-148.56;100.00;61375.16;4967157;28;20109;-37
2022/03/21 10:32:46;;;;;;;17.83;7.55;;;;;;;-148.56;100.00;61375.16;4968251;28;20027;-34
2022/03/21 10:35:24;;;;;;;18.35;7.15;;;;;;;-148.56;100.00;61375.16;4951428;28;20784;-34
2022/03/21 10:37:55;;;;;;;10.10;6.68;;;;;;;-148.56;100.00;61375.16;4968279;28;20034;-35
2022/03/21 10:40:25;;;;;;;12.02;6.43;;;;;;;-148.56;100.00;61375.16;4968273;28;20565;-30
2022/03/21 10:43:00;;;;;;;9.43;6.35;;;;;;;-148.56;100.00;61375.16;4970596;28;20141;-38
2022/03/21 10:45:40;;;;;;;9.88;6.10;;;;;;;-148.56;100.00;61375.16;4968443;28;20034;-37
2022/03/21 10:48:16;;;;;;;8.30;6.40;;;;;;;-148.56;100.00;61375.16;4954138;28;20031;-33
2022/03/21 10:50:43;;;;;;;10.85;5.80;;;;;;;-148.56;100.00;61375.16;4970788;28;20045;-35
2022/03/21 10:53:10;;;;;;;12.70;6.57;;;;;;;-148.56;100.00;61375.16;4969616;28;20050;-38
2022/03/21 10:55:36;;;;;;;72.55;12.07;;;;;;;-148.56;100.00;61375.16;4969722;28;20113;-33
2022/03/21 10:58:02;;;;;;;16.52;7.22;;;;;;;-148.56;100.00;61375.16;4970436;28;20041;-32
2022/03/21 11:00:28;;;;;;;12.80;6.55;;;;;;;-148.56;100.00;61375.16;4971795;28;20029;-34
2022/03/21 11:02:58;;;;;;;21.83;8.18;;;;;;;-148.56;100.00;61375.16;4968649;28;20374;-31
2022/03/21 11:05:25;;;;;;;15.70;8.07;;;;;;;-148.56;100.00;61375.16;4968969;28;20102;-33
2022/03/21 11:07:50;;;;;;;17.20;8.20;;;;;;;-148.56;100.00;61375.16;4971263;28;20033;-33
2022/03/21 11:10:16;;;;;;;14.70;8.40;;;;;;;-148.56;100.00;61375.16;4971658;28;20026;-35
2022/03/21 11:12:42;;;;;;;15.15;9.07;;;;;;;-148.56;100.00;61375.16;4970935;28;20060;-37
2022/03/21 11:15:11;;;;;;;18.15;9.35;;;;;;;-148.56;100.00;61375.16;4969518;28;20030;-37
2022/03/21 11:17:37;;;;;;;15.85;9.15;;;;;;;-148.56;100.00;61375.16;4965838;28;20034;-33
2022/03/21 11:20:05;;;;;;;14.77;9.07;;;;;;;-148.56;100.00;61375.16;4967892;28;20065;-35
2022/03/21 11:22:32;;;;;;;16.27;8.50;;;;;;;-148.56;100.00;61375.16;4969206;28;20034;-32
2022/03/21 11:25:09;;;;;;;17.40;8.15;;;;;;;-148.56;100.00;61375.16;4970548;28;20038;-39
2022/03/21 11:27:58;;;;;;;14.15;7.68;;;;;;;-148.56;100.00;61375.16;4971357;28;20037;-35